sensor_id;sensor_type;location;lat;lon;timestamp;P1;durP1;ratioP1;P2;durP2;ratioP2
25567;SDS011;13455;51.480;7.594;2024-03-22T00:01:44;48.03;;;27.88;;
25567;SDS011;13455;51.480;7.594;2024-03-22T00:04:10;48.20;;;28.10;;
25567;SDS011;13455;51.480;7.594;2024-03-22T00:06:37;47.40;;;27.97;;
25567;SDS011;13455;51.480;7.594;2024-03-22T00:09:03;45.95;;;28.02;;
25567;SDS011;13455;51.480;7.594;2024-03-22T00:11:29;46.22;;;27.73;;
25567;SDS011;13455;51.480;7.594;2024-03-22T00:13:55;43.70;;;27.67;;
25567;SDS011;13455;51.480;7.594;2024-03-22T00:16:21;46.53;;;26.52;;
25567;SDS011;13455;51.480;7.594;2024-03-22T00:18:47;47.17;;;27.90;;
25567;SDS011;13455;51.480;7.594;2024-03-22T00:21:13;44.92;;;26.90;;
25567;SDS011;13455;51.480;7.594;2024-03-22T00:23:39;49.45;;;27.80;;
25567;SDS011;13455;51.480;7.594;2024-03-22T00:26:05;48.72;;;27.95;;
25567;SDS011;13455;51.480;7.594;2024-03-22T00:28:31;45.10;;;27.23;;
25567;SDS011;13455;51.480;7.594;2024-03-22T00:30:58;46.72;;;27.70;;
25567;SDS011;13455;51.480;7.594;2024-03-22T00:33:24;45.40;;;28.02;;
25567;SDS011;13455;51.480;7.594;2024-03-22T00:35:50;45.15;;;28.05;;
25567;SDS011;13455;51.480;7.594;2024-03-22T00:38:16;46.40;;;26.87;;
25567;SDS011;13455;51.480;7.594;2024-03-22T00:40:42;46.97;;;27.30;;
25567;SDS011;13455;51.480;7.594;2024-03-22T00:43:08;47.08;;;27.50;;
25567;SDS011;13455;51.480;7.594;2024-03-22T00:45:34;47.63;;;26.85;;
25567;SDS011;13455;51.480;7.594;2024-03-22T00:47:59;50.05;;;28.25;;
25567;SDS011;13455;51.480;7.594;2024-03-22T00:50:25;43.23;;;25.93;;
25567;SDS011;13455;51.480;7.594;2024-03-22T00:52:51;45.83;;;26.60;;
25567;SDS011;13455;51.480;7.594;2024-03-22T00:55:18;46.63;;;26.60;;
25567;SDS011;13455;51.480;7.594;2024-03-22T00:57:44;45.95;;;26.40;;
25567;SDS011;13455;51.480;7.594;2024-03-22T01:00:09;45.83;;;26.80;;
25567;SDS011;13455;51.480;7.594;2024-03-22T01:02:35;47.15;;;26.52;;
25567;SDS011;13455;51.480;7.594;2024-03-22T01:05:01;47.38;;;26.85;;
25567;SDS011;13455;51.480;7.594;2024-03-22T01:07:27;46.53;;;26.63;;
25567;SDS011;13455;51.480;7.594;2024-03-22T01:09:52;45.60;;;26.65;;
25567;SDS011;13455;51.480;7.594;2024-03-22T01:12:18;49.03;;;26.93;;
25567;SDS011;13455;51.480;7.594;2024-03-22T01:14:44;44.50;;;26.05;;
25567;SDS011;13455;51.480;7.594;2024-03-22T01:17:09;43.90;;;25.80;;
25567;SDS011;13455;51.480;7.594;2024-03-22T01:19:35;42.38;;;25.63;;
25567;SDS011;13455;51.480;7.594;2024-03-22T01:22:01;44.47;;;25.48;;
25567;SDS011;13455;51.480;7.594;2024-03-22T01:24:28;44.33;;;25.23;;
25567;SDS011;13455;51.480;7.594;2024-03-22T01:26:54;45.58;;;25.67;;
25567;SDS011;13455;51.480;7.594;2024-03-22T01:29:21;43.03;;;25.17;;
25567;SDS011;13455;51.480;7.594;2024-03-22T01:31:47;45.63;;;24.88;;
25567;SDS011;13455;51.480;7.594;2024-03-22T01:34:13;44.80;;;24.92;;
25567;SDS011;13455;51.480;7.594;2024-03-22T01:36:40;41.08;;;24.92;;
25567;SDS011;13455;51.480;7.594;2024-03-22T01:39:06;43.10;;;25.10;;
25567;SDS011;13455;51.480;7.594;2024-03-22T01:41:32;45.08;;;23.70;;
25567;SDS011;13455;51.480;7.594;2024-03-22T01:43:58;42.63;;;24.27;;
25567;SDS011;13455;51.480;7.594;2024-03-22T01:46:24;41.97;;;24.60;;
25567;SDS011;13455;51.480;7.594;2024-03-22T01:48:50;45.72;;;25.25;;
25567;SDS011;13455;51.480;7.594;2024-03-22T01:51:18;44.35;;;25.33;;
25567;SDS011;13455;51.480;7.594;2024-03-22T01:53:44;43.53;;;24.45;;
25567;SDS011;13455;51.480;7.594;2024-03-22T01:56:10;44.22;;;24.98;;
25567;SDS011;13455;51.480;7.594;2024-03-22T01:58:36;43.78;;;24.92;;
25567;SDS011;13455;51.480;7.594;2024-03-22T02:01:02;47.08;;;25.17;;
25567;SDS011;13455;51.480;7.594;2024-03-22T02:03:28;44.73;;;24.90;;
25567;SDS011;13455;51.480;7.594;2024-03-22T02:05:55;45.50;;;24.52;;
25567;SDS011;13455;51.480;7.594;2024-03-22T02:08:21;46.27;;;25.30;;
25567;SDS011;13455;51.480;7.594;2024-03-22T02:10:47;43.70;;;24.35;;
25567;SDS011;13455;51.480;7.594;2024-03-22T02:13:13;46.33;;;25.20;;
25567;SDS011;13455;51.480;7.594;2024-03-22T02:15:39;46.87;;;25.30;;
25567;SDS011;13455;51.480;7.594;2024-03-22T02:18:05;44.42;;;24.85;;
25567;SDS011;13455;51.480;7.594;2024-03-22T02:20:31;44.22;;;25.20;;
25567;SDS011;13455;51.480;7.594;2024-03-22T02:22:57;43.22;;;24.33;;
25567;SDS011;13455;51.480;7.594;2024-03-22T02:25:23;43.22;;;24.55;;
25567;SDS011;13455;51.480;7.594;2024-03-22T02:27:49;44.23;;;23.73;;
25567;SDS011;13455;51.480;7.594;2024-03-22T02:30:16;48.30;;;24.88;;
25567;SDS011;13455;51.480;7.594;2024-03-22T02:32:42;43.35;;;24.17;;
25567;SDS011;13455;51.480;7.594;2024-03-22T02:35:08;44.33;;;23.50;;
25567;SDS011;13455;51.480;7.594;2024-03-22T02:37:34;43.43;;;23.97;;
25567;SDS011;13455;51.480;7.594;2024-03-22T02:40:00;43.92;;;24.05;;
25567;SDS011;13455;51.480;7.594;2024-03-22T02:42:26;44.92;;;24.40;;
25567;SDS011;13455;51.480;7.594;2024-03-22T02:44:52;45.75;;;24.50;;
25567;SDS011;13455;51.480;7.594;2024-03-22T02:47:18;45.07;;;24.07;;
25567;SDS011;13455;51.480;7.594;2024-03-22T02:49:45;46.08;;;24.40;;
25567;SDS011;13455;51.480;7.594;2024-03-22T02:52:11;40.87;;;22.93;;
25567;SDS011;13455;51.480;7.594;2024-03-22T02:54:37;41.58;;;23.38;;
25567;SDS011;13455;51.480;7.594;2024-03-22T02:57:03;44.45;;;23.65;;
25567;SDS011;13455;51.480;7.594;2024-03-22T02:59:29;42.65;;;22.92;;
25567;SDS011;13455;51.480;7.594;2024-03-22T03:01:55;40.35;;;23.02;;
25567;SDS011;13455;51.480;7.594;2024-03-22T03:04:21;42.47;;;22.65;;
25567;SDS011;13455;51.480;7.594;2024-03-22T03:06:47;44.10;;;23.23;;
25567;SDS011;13455;51.480;7.594;2024-03-22T03:09:13;42.38;;;22.95;;
25567;SDS011;13455;51.480;7.594;2024-03-22T03:11:39;42.35;;;23.73;;
25567;SDS011;13455;51.480;7.594;2024-03-22T03:14:06;42.93;;;23.37;;
25567;SDS011;13455;51.480;7.594;2024-03-22T03:16:32;40.00;;;22.48;;
25567;SDS011;13455;51.480;7.594;2024-03-22T03:18:58;40.33;;;22.95;;
25567;SDS011;13455;51.480;7.594;2024-03-22T03:21:24;41.95;;;23.73;;
25567;SDS011;13455;51.480;7.594;2024-03-22T03:23:50;40.75;;;22.88;;
25567;SDS011;13455;51.480;7.594;2024-03-22T03:26:16;41.58;;;23.20;;
25567;SDS011;13455;51.480;7.594;2024-03-22T03:28:42;39.60;;;22.40;;
25567;SDS011;13455;51.480;7.594;2024-03-22T03:31:08;43.50;;;23.30;;
25567;SDS011;13455;51.480;7.594;2024-03-22T03:33:35;41.40;;;22.17;;
25567;SDS011;13455;51.480;7.594;2024-03-22T03:36:01;41.38;;;22.95;;
25567;SDS011;13455;51.480;7.594;2024-03-22T03:38:27;42.13;;;22.45;;
25567;SDS011;13455;51.480;7.594;2024-03-22T03:40:53;42.22;;;22.40;;
25567;SDS011;13455;51.480;7.594;2024-03-22T03:43:19;41.08;;;22.65;;
25567;SDS011;13455;51.480;7.594;2024-03-22T03:45:45;37.83;;;22.25;;
25567;SDS011;13455;51.480;7.594;2024-03-22T03:48:11;38.88;;;22.88;;
25567;SDS011;13455;51.480;7.594;2024-03-22T03:50:37;40.40;;;23.38;;
25567;SDS011;13455;51.480;7.594;2024-03-22T03:53:03;40.97;;;22.85;;
25567;SDS011;13455;51.480;7.594;2024-03-22T03:55:29;39.58;;;22.70;;
25567;SDS011;13455;51.480;7.594;2024-03-22T03:57:55;39.60;;;22.00;;
25567;SDS011;13455;51.480;7.594;2024-03-22T04:00:21;41.05;;;22.65;;
25567;SDS011;13455;51.480;7.594;2024-03-22T04:02:50;40.58;;;22.98;;
25567;SDS011;13455;51.480;7.594;2024-03-22T04:05:16;39.35;;;23.02;;
25567;SDS011;13455;51.480;7.594;2024-03-22T04:07:42;41.03;;;23.13;;
25567;SDS011;13455;51.480;7.594;2024-03-22T04:10:12;39.40;;;22.63;;
25567;SDS011;13455;51.480;7.594;2024-03-22T04:12:38;39.58;;;22.90;;
25567;SDS011;13455;51.480;7.594;2024-03-22T04:15:04;40.97;;;23.20;;
25567;SDS011;13455;51.480;7.594;2024-03-22T04:17:30;39.78;;;22.80;;
25567;SDS011;13455;51.480;7.594;2024-03-22T04:19:57;37.83;;;22.55;;
25567;SDS011;13455;51.480;7.594;2024-03-22T04:22:23;38.20;;;22.02;;
25567;SDS011;13455;51.480;7.594;2024-03-22T04:24:49;40.22;;;22.98;;
25567;SDS011;13455;51.480;7.594;2024-03-22T04:27:15;41.17;;;22.73;;
25567;SDS011;13455;51.480;7.594;2024-03-22T04:29:41;40.25;;;22.90;;
25567;SDS011;13455;51.480;7.594;2024-03-22T04:32:07;42.97;;;23.13;;
25567;SDS011;13455;51.480;7.594;2024-03-22T04:34:33;39.33;;;22.40;;
25567;SDS011;13455;51.480;7.594;2024-03-22T04:36:59;37.50;;;22.70;;
25567;SDS011;13455;51.480;7.594;2024-03-22T04:39:25;37.90;;;22.10;;
25567;SDS011;13455;51.480;7.594;2024-03-22T04:41:51;36.00;;;21.80;;
25567;SDS011;13455;51.480;7.594;2024-03-22T04:44:17;40.47;;;22.70;;
25567;SDS011;13455;51.480;7.594;2024-03-22T04:46:43;37.33;;;22.30;;
25567;SDS011;13455;51.480;7.594;2024-03-22T04:49:09;38.05;;;21.95;;
25567;SDS011;13455;51.480;7.594;2024-03-22T04:51:35;40.47;;;21.90;;
25567;SDS011;13455;51.480;7.594;2024-03-22T04:54:01;38.42;;;21.17;;
25567;SDS011;13455;51.480;7.594;2024-03-22T04:56:27;35.58;;;21.48;;
25567;SDS011;13455;51.480;7.594;2024-03-22T04:58:53;36.97;;;21.45;;
25567;SDS011;13455;51.480;7.594;2024-03-22T05:01:20;36.30;;;21.05;;
25567;SDS011;13455;51.480;7.594;2024-03-22T05:03:48;36.60;;;21.05;;
25567;SDS011;13455;51.480;7.594;2024-03-22T05:06:14;32.67;;;19.92;;
25567;SDS011;13455;51.480;7.594;2024-03-22T05:08:40;34.97;;;20.53;;
25567;SDS011;13455;51.480;7.594;2024-03-22T05:11:07;32.92;;;20.60;;
25567;SDS011;13455;51.480;7.594;2024-03-22T05:13:33;33.15;;;20.48;;
25567;SDS011;13455;51.480;7.594;2024-03-22T05:15:59;32.35;;;20.08;;
25567;SDS011;13455;51.480;7.594;2024-03-22T05:18:25;30.58;;;19.27;;
25567;SDS011;13455;51.480;7.594;2024-03-22T05:20:51;33.20;;;19.40;;
25567;SDS011;13455;51.480;7.594;2024-03-22T05:23:17;32.33;;;19.35;;
25567;SDS011;13455;51.480;7.594;2024-03-22T05:25:43;32.63;;;19.98;;
25567;SDS011;13455;51.480;7.594;2024-03-22T05:28:09;31.08;;;19.10;;
25567;SDS011;13455;51.480;7.594;2024-03-22T05:30:35;33.47;;;19.73;;
25567;SDS011;13455;51.480;7.594;2024-03-22T05:33:01;31.45;;;18.75;;
25567;SDS011;13455;51.480;7.594;2024-03-22T05:35:27;29.63;;;18.27;;
25567;SDS011;13455;51.480;7.594;2024-03-22T05:37:53;29.25;;;18.48;;
25567;SDS011;13455;51.480;7.594;2024-03-22T05:40:19;27.88;;;17.98;;
25567;SDS011;13455;51.480;7.594;2024-03-22T05:42:46;30.08;;;18.42;;
25567;SDS011;13455;51.480;7.594;2024-03-22T05:45:11;29.60;;;18.10;;
25567;SDS011;13455;51.480;7.594;2024-03-22T05:47:37;29.85;;;17.25;;
25567;SDS011;13455;51.480;7.594;2024-03-22T05:50:03;29.15;;;17.92;;
25567;SDS011;13455;51.480;7.594;2024-03-22T05:52:31;27.60;;;17.08;;
25567;SDS011;13455;51.480;7.594;2024-03-22T05:54:58;30.33;;;17.53;;
25567;SDS011;13455;51.480;7.594;2024-03-22T05:57:23;26.83;;;16.33;;
25567;SDS011;13455;51.480;7.594;2024-03-22T05:59:49;27.87;;;16.77;;
25567;SDS011;13455;51.480;7.594;2024-03-22T06:02:15;25.73;;;16.10;;
25567;SDS011;13455;51.480;7.594;2024-03-22T06:04:41;27.52;;;15.93;;
25567;SDS011;13455;51.480;7.594;2024-03-22T06:07:07;26.40;;;15.57;;
25567;SDS011;13455;51.480;7.594;2024-03-22T06:09:33;26.40;;;15.30;;
25567;SDS011;13455;51.480;7.594;2024-03-22T06:12:17;24.00;;;15.07;;
25567;SDS011;13455;51.480;7.594;2024-03-22T06:14:43;24.42;;;14.70;;
25567;SDS011;13455;51.480;7.594;2024-03-22T06:17:10;24.80;;;14.07;;
25567;SDS011;13455;51.480;7.594;2024-03-22T06:19:36;22.40;;;14.48;;
25567;SDS011;13455;51.480;7.594;2024-03-22T06:22:03;26.00;;;15.07;;
25567;SDS011;13455;51.480;7.594;2024-03-22T06:24:29;23.35;;;14.32;;
25567;SDS011;13455;51.480;7.594;2024-03-22T06:26:54;23.27;;;14.10;;
25567;SDS011;13455;51.480;7.594;2024-03-22T06:29:20;24.55;;;13.98;;
25567;SDS011;13455;51.480;7.594;2024-03-22T06:31:46;23.77;;;13.98;;
25567;SDS011;13455;51.480;7.594;2024-03-22T06:34:12;26.42;;;13.95;;
25567;SDS011;13455;51.480;7.594;2024-03-22T06:36:38;23.00;;;13.60;;
25567;SDS011;13455;51.480;7.594;2024-03-22T06:39:03;20.50;;;13.17;;
25567;SDS011;13455;51.480;7.594;2024-03-22T06:41:34;23.63;;;13.15;;
25567;SDS011;13455;51.480;7.594;2024-03-22T06:43:59;20.08;;;12.68;;
25567;SDS011;13455;51.480;7.594;2024-03-22T06:46:25;22.53;;;12.40;;
25567;SDS011;13455;51.480;7.594;2024-03-22T06:48:51;21.17;;;12.67;;
25567;SDS011;13455;51.480;7.594;2024-03-22T06:51:17;20.15;;;12.57;;
25567;SDS011;13455;51.480;7.594;2024-03-22T06:53:43;20.60;;;12.63;;
25567;SDS011;13455;51.480;7.594;2024-03-22T06:56:10;18.77;;;12.18;;
25567;SDS011;13455;51.480;7.594;2024-03-22T06:58:37;20.45;;;11.75;;
25567;SDS011;13455;51.480;7.594;2024-03-22T07:01:06;20.25;;;12.35;;
25567;SDS011;13455;51.480;7.594;2024-03-22T07:03:31;22.02;;;11.93;;
25567;SDS011;13455;51.480;7.594;2024-03-22T07:05:58;19.45;;;11.63;;
25567;SDS011;13455;51.480;7.594;2024-03-22T07:08:24;19.20;;;12.00;;
25567;SDS011;13455;51.480;7.594;2024-03-22T07:10:50;17.60;;;11.75;;
25567;SDS011;13455;51.480;7.594;2024-03-22T07:13:18;20.90;;;11.90;;
25567;SDS011;13455;51.480;7.594;2024-03-22T07:15:47;20.15;;;12.20;;
25567;SDS011;13455;51.480;7.594;2024-03-22T07:18:16;19.20;;;12.20;;
25567;SDS011;13455;51.480;7.594;2024-03-22T07:20:42;19.05;;;12.20;;
25567;SDS011;13455;51.480;7.594;2024-03-22T07:23:08;20.80;;;12.60;;
25567;SDS011;13455;51.480;7.594;2024-03-22T07:25:34;21.23;;;12.27;;
25567;SDS011;13455;51.480;7.594;2024-03-22T07:28:00;20.03;;;12.57;;
25567;SDS011;13455;51.480;7.594;2024-03-22T07:30:25;19.77;;;12.70;;
25567;SDS011;13455;51.480;7.594;2024-03-22T07:32:52;23.73;;;13.10;;
25567;SDS011;13455;51.480;7.594;2024-03-22T07:35:18;22.48;;;13.63;;
25567;SDS011;13455;51.480;7.594;2024-03-22T07:37:44;20.70;;;12.60;;
25567;SDS011;13455;51.480;7.594;2024-03-22T07:40:10;19.50;;;12.68;;
25567;SDS011;13455;51.480;7.594;2024-03-22T07:42:36;22.85;;;13.18;;
25567;SDS011;13455;51.480;7.594;2024-03-22T07:45:02;20.75;;;13.32;;
25567;SDS011;13455;51.480;7.594;2024-03-22T07:47:29;21.70;;;13.43;;
25567;SDS011;13455;51.480;7.594;2024-03-22T07:49:57;20.13;;;13.00;;
25567;SDS011;13455;51.480;7.594;2024-03-22T07:52:23;21.50;;;13.15;;
25567;SDS011;13455;51.480;7.594;2024-03-22T07:54:49;20.90;;;13.27;;
25567;SDS011;13455;51.480;7.594;2024-03-22T07:57:15;20.45;;;12.85;;
25567;SDS011;13455;51.480;7.594;2024-03-22T07:59:41;19.67;;;12.97;;
25567;SDS011;13455;51.480;7.594;2024-03-22T08:02:09;19.98;;;12.90;;
25567;SDS011;13455;51.480;7.594;2024-03-22T08:04:35;19.48;;;12.30;;
25567;SDS011;13455;51.480;7.594;2024-03-22T08:07:01;21.27;;;12.23;;
25567;SDS011;13455;51.480;7.594;2024-03-22T08:09:26;21.20;;;12.00;;
25567;SDS011;13455;51.480;7.594;2024-03-22T08:11:52;20.52;;;12.20;;
25567;SDS011;13455;51.480;7.594;2024-03-22T08:14:18;19.75;;;13.00;;
25567;SDS011;13455;51.480;7.594;2024-03-22T08:16:43;22.80;;;12.70;;
25567;SDS011;13455;51.480;7.594;2024-03-22T08:19:09;20.80;;;12.30;;
25567;SDS011;13455;51.480;7.594;2024-03-22T08:21:35;20.67;;;12.90;;
25567;SDS011;13455;51.480;7.594;2024-03-22T08:24:01;20.30;;;12.40;;
25567;SDS011;13455;51.480;7.594;2024-03-22T08:26:27;20.97;;;13.13;;
25567;SDS011;13455;51.480;7.594;2024-03-22T08:28:53;21.67;;;13.57;;
25567;SDS011;13455;51.480;7.594;2024-03-22T08:31:18;22.33;;;13.35;;
25567;SDS011;13455;51.480;7.594;2024-03-22T08:33:50;22.40;;;13.88;;
25567;SDS011;13455;51.480;7.594;2024-03-22T08:36:16;23.85;;;14.13;;
25567;SDS011;13455;51.480;7.594;2024-03-22T08:38:42;19.75;;;12.70;;
25567;SDS011;13455;51.480;7.594;2024-03-22T08:41:07;21.83;;;12.93;;
25567;SDS011;13455;51.480;7.594;2024-03-22T08:43:33;20.63;;;13.17;;
25567;SDS011;13455;51.480;7.594;2024-03-22T08:45:58;20.33;;;13.48;;
25567;SDS011;13455;51.480;7.594;2024-03-22T08:48:24;22.05;;;13.05;;
25567;SDS011;13455;51.480;7.594;2024-03-22T08:50:51;19.30;;;12.80;;
25567;SDS011;13455;51.480;7.594;2024-03-22T08:53:17;19.58;;;12.63;;
25567;SDS011;13455;51.480;7.594;2024-03-22T08:55:46;20.85;;;14.27;;
25567;SDS011;13455;51.480;7.594;2024-03-22T08:58:13;21.80;;;14.15;;
25567;SDS011;13455;51.480;7.594;2024-03-22T09:00:43;22.80;;;13.57;;
25567;SDS011;13455;51.480;7.594;2024-03-22T09:03:09;21.80;;;14.43;;
25567;SDS011;13455;51.480;7.594;2024-03-22T09:05:35;21.60;;;14.02;;
25567;SDS011;13455;51.480;7.594;2024-03-22T09:08:02;23.13;;;13.88;;
25567;SDS011;13455;51.480;7.594;2024-03-22T09:10:28;24.35;;;13.95;;
25567;SDS011;13455;51.480;7.594;2024-03-22T09:12:55;23.75;;;13.98;;
25567;SDS011;13455;51.480;7.594;2024-03-22T09:15:21;21.92;;;13.80;;
25567;SDS011;13455;51.480;7.594;2024-03-22T09:17:47;22.45;;;13.98;;
25567;SDS011;13455;51.480;7.594;2024-03-22T09:20:13;21.60;;;14.18;;
25567;SDS011;13455;51.480;7.594;2024-03-22T09:22:39;24.17;;;15.00;;
25567;SDS011;13455;51.480;7.594;2024-03-22T09:25:06;22.88;;;15.02;;
25567;SDS011;13455;51.480;7.594;2024-03-22T09:27:35;23.33;;;14.57;;
25567;SDS011;13455;51.480;7.594;2024-03-22T09:30:01;22.60;;;14.27;;
25567;SDS011;13455;51.480;7.594;2024-03-22T09:32:29;22.85;;;13.95;;
25567;SDS011;13455;51.480;7.594;2024-03-22T09:34:54;20.67;;;13.07;;
25567;SDS011;13455;51.480;7.594;2024-03-22T09:37:21;20.15;;;13.13;;
25567;SDS011;13455;51.480;7.594;2024-03-22T09:39:46;20.47;;;12.77;;
25567;SDS011;13455;51.480;7.594;2024-03-22T09:42:13;20.57;;;13.37;;
25567;SDS011;13455;51.480;7.594;2024-03-22T09:44:46;18.97;;;11.60;;
25567;SDS011;13455;51.480;7.594;2024-03-22T09:47:16;20.33;;;11.88;;
25567;SDS011;13455;51.480;7.594;2024-03-22T09:49:43;18.33;;;11.68;;
25567;SDS011;13455;51.480;7.594;2024-03-22T09:52:13;17.75;;;11.95;;
25567;SDS011;13455;51.480;7.594;2024-03-22T09:54:42;21.27;;;12.07;;
25567;SDS011;13455;51.480;7.594;2024-03-22T09:57:10;17.67;;;11.80;;
25567;SDS011;13455;51.480;7.594;2024-03-22T09:59:41;18.10;;;11.87;;
25567;SDS011;13455;51.480;7.594;2024-03-22T10:02:08;20.98;;;12.10;;
25567;SDS011;13455;51.480;7.594;2024-03-22T10:04:37;17.98;;;11.43;;
25567;SDS011;13455;51.480;7.594;2024-03-22T10:07:03;19.33;;;11.20;;
25567;SDS011;13455;51.480;7.594;2024-03-22T10:09:30;16.65;;;10.80;;
25567;SDS011;13455;51.480;7.594;2024-03-22T10:11:56;18.50;;;10.37;;
25567;SDS011;13455;51.480;7.594;2024-03-22T10:14:22;15.43;;;10.57;;
25567;SDS011;13455;51.480;7.594;2024-03-22T10:16:51;16.67;;;10.38;;
25567;SDS011;13455;51.480;7.594;2024-03-22T10:19:19;16.50;;;11.00;;
25567;SDS011;13455;51.480;7.594;2024-03-22T10:21:45;16.55;;;11.57;;
25567;SDS011;13455;51.480;7.594;2024-03-22T10:24:32;17.95;;;11.63;;
25567;SDS011;13455;51.480;7.594;2024-03-22T10:26:58;17.97;;;11.33;;
25567;SDS011;13455;51.480;7.594;2024-03-22T10:29:24;17.60;;;11.23;;
25567;SDS011;13455;51.480;7.594;2024-03-22T10:31:54;18.40;;;11.65;;
25567;SDS011;13455;51.480;7.594;2024-03-22T10:34:21;19.55;;;11.80;;
25567;SDS011;13455;51.480;7.594;2024-03-22T10:36:47;20.48;;;11.90;;
25567;SDS011;13455;51.480;7.594;2024-03-22T10:39:15;19.48;;;11.82;;
25567;SDS011;13455;51.480;7.594;2024-03-22T10:41:45;19.10;;;11.88;;
25567;SDS011;13455;51.480;7.594;2024-03-22T10:44:12;19.75;;;11.80;;
25567;SDS011;13455;51.480;7.594;2024-03-22T10:46:38;18.13;;;11.52;;
25567;SDS011;13455;51.480;7.594;2024-03-22T10:49:08;16.33;;;11.17;;
25567;SDS011;13455;51.480;7.594;2024-03-22T10:51:35;16.23;;;11.15;;
25567;SDS011;13455;51.480;7.594;2024-03-22T10:54:02;16.58;;;11.20;;
25567;SDS011;13455;51.480;7.594;2024-03-22T10:56:30;17.70;;;11.10;;
25567;SDS011;13455;51.480;7.594;2024-03-22T10:58:56;15.98;;;10.63;;
25567;SDS011;13455;51.480;7.594;2024-03-22T11:01:22;17.95;;;10.70;;
25567;SDS011;13455;51.480;7.594;2024-03-22T11:03:48;18.48;;;10.60;;
25567;SDS011;13455;51.480;7.594;2024-03-22T11:06:17;17.48;;;10.80;;
25567;SDS011;13455;51.480;7.594;2024-03-22T11:08:49;15.93;;;10.37;;
25567;SDS011;13455;51.480;7.594;2024-03-22T11:11:17;17.17;;;10.70;;
25567;SDS011;13455;51.480;7.594;2024-03-22T11:13:47;17.38;;;10.90;;
25567;SDS011;13455;51.480;7.594;2024-03-22T11:16:15;15.40;;;10.25;;
25567;SDS011;13455;51.480;7.594;2024-03-22T11:18:42;13.30;;;9.50;;
25567;SDS011;13455;51.480;7.594;2024-03-22T11:21:08;16.27;;;9.70;;
25567;SDS011;13455;51.480;7.594;2024-03-22T11:23:34;14.70;;;9.32;;
25567;SDS011;13455;51.480;7.594;2024-03-22T11:26:01;16.17;;;9.23;;
25567;SDS011;13455;51.480;7.594;2024-03-22T11:28:29;13.73;;;9.40;;
25567;SDS011;13455;51.480;7.594;2024-03-22T11:30:55;15.30;;;9.27;;
25567;SDS011;13455;51.480;7.594;2024-03-22T11:33:21;19.63;;;9.57;;
25567;SDS011;13455;51.480;7.594;2024-03-22T11:35:47;14.13;;;9.43;;
25567;SDS011;13455;51.480;7.594;2024-03-22T11:38:15;13.82;;;9.38;;
25567;SDS011;13455;51.480;7.594;2024-03-22T11:40:42;13.60;;;8.90;;
25567;SDS011;13455;51.480;7.594;2024-03-22T11:43:09;13.45;;;8.80;;
25567;SDS011;13455;51.480;7.594;2024-03-22T11:45:36;13.93;;;8.65;;
25567;SDS011;13455;51.480;7.594;2024-03-22T11:48:02;12.10;;;8.05;;
25567;SDS011;13455;51.480;7.594;2024-03-22T11:50:28;13.60;;;8.10;;
25567;SDS011;13455;51.480;7.594;2024-03-22T11:52:54;12.93;;;8.70;;
25567;SDS011;13455;51.480;7.594;2024-03-22T11:55:21;12.75;;;8.05;;
25567;SDS011;13455;51.480;7.594;2024-03-22T11:57:50;12.30;;;7.93;;
25567;SDS011;13455;51.480;7.594;2024-03-22T12:00:18;14.45;;;8.15;;
25567;SDS011;13455;51.480;7.594;2024-03-22T12:02:44;15.25;;;8.50;;
25567;SDS011;13455;51.480;7.594;2024-03-22T12:05:11;13.38;;;8.50;;
25567;SDS011;13455;51.480;7.594;2024-03-22T12:07:37;13.93;;;8.82;;
25567;SDS011;13455;51.480;7.594;2024-03-22T12:10:02;14.85;;;9.00;;
25567;SDS011;13455;51.480;7.594;2024-03-22T12:12:29;15.63;;;9.10;;
25567;SDS011;13455;51.480;7.594;2024-03-22T12:14:55;13.10;;;9.13;;
25567;SDS011;13455;51.480;7.594;2024-03-22T12:17:21;16.95;;;9.50;;
25567;SDS011;13455;51.480;7.594;2024-03-22T12:19:46;16.30;;;9.63;;
25567;SDS011;13455;51.480;7.594;2024-03-22T12:22:12;16.27;;;10.05;;
25567;SDS011;13455;51.480;7.594;2024-03-22T12:24:38;16.50;;;9.85;;
25567;SDS011;13455;51.480;7.594;2024-03-22T12:27:04;13.70;;;9.67;;
25567;SDS011;13455;51.480;7.594;2024-03-22T12:29:33;16.60;;;10.00;;
25567;SDS011;13455;51.480;7.594;2024-03-22T12:32:00;14.93;;;10.05;;
25567;SDS011;13455;51.480;7.594;2024-03-22T12:34:28;14.80;;;10.27;;
25567;SDS011;13455;51.480;7.594;2024-03-22T12:36:58;20.30;;;10.57;;
25567;SDS011;13455;51.480;7.594;2024-03-22T12:39:24;15.30;;;10.23;;
25567;SDS011;13455;51.480;7.594;2024-03-22T12:41:50;16.17;;;10.25;;
25567;SDS011;13455;51.480;7.594;2024-03-22T12:44:16;15.85;;;10.38;;
25567;SDS011;13455;51.480;7.594;2024-03-22T12:46:42;14.65;;;10.15;;
25567;SDS011;13455;51.480;7.594;2024-03-22T12:49:09;14.90;;;10.10;;
25567;SDS011;13455;51.480;7.594;2024-03-22T12:51:35;15.70;;;10.20;;
25567;SDS011;13455;51.480;7.594;2024-03-22T12:54:01;16.07;;;10.20;;
25567;SDS011;13455;51.480;7.594;2024-03-22T12:56:28;16.25;;;9.75;;
25567;SDS011;13455;51.480;7.594;2024-03-22T12:58:53;17.17;;;10.02;;
25567;SDS011;13455;51.480;7.594;2024-03-22T13:01:19;16.20;;;10.00;;
25567;SDS011;13455;51.480;7.594;2024-03-22T13:03:46;15.00;;;10.20;;
25567;SDS011;13455;51.480;7.594;2024-03-22T13:06:12;16.45;;;10.80;;
25567;SDS011;13455;51.480;7.594;2024-03-22T13:08:37;18.70;;;10.73;;
25567;SDS011;13455;51.480;7.594;2024-03-22T13:11:03;18.53;;;11.23;;
25567;SDS011;13455;51.480;7.594;2024-03-22T13:13:29;17.80;;;11.40;;
25567;SDS011;13455;51.480;7.594;2024-03-22T13:15:58;17.13;;;11.23;;
25567;SDS011;13455;51.480;7.594;2024-03-22T13:18:24;17.87;;;10.83;;
25567;SDS011;13455;51.480;7.594;2024-03-22T13:20:50;17.83;;;11.20;;
25567;SDS011;13455;51.480;7.594;2024-03-22T13:23:15;15.98;;;11.13;;
25567;SDS011;13455;51.480;7.594;2024-03-22T13:25:41;16.35;;;11.15;;
25567;SDS011;13455;51.480;7.594;2024-03-22T13:28:06;19.10;;;11.60;;
25567;SDS011;13455;51.480;7.594;2024-03-22T13:30:32;19.08;;;11.77;;
25567;SDS011;13455;51.480;7.594;2024-03-22T13:33:00;17.38;;;11.10;;
25567;SDS011;13455;51.480;7.594;2024-03-22T13:35:26;17.10;;;10.82;;
25567;SDS011;13455;51.480;7.594;2024-03-22T13:37:52;20.13;;;11.40;;
25567;SDS011;13455;51.480;7.594;2024-03-22T13:40:18;15.40;;;10.95;;
25567;SDS011;13455;51.480;7.594;2024-03-22T13:42:43;15.43;;;10.57;;
25567;SDS011;13455;51.480;7.594;2024-03-22T13:45:09;15.93;;;10.37;;
25567;SDS011;13455;51.480;7.594;2024-03-22T13:47:35;15.80;;;10.60;;
25567;SDS011;13455;51.480;7.594;2024-03-22T13:50:03;15.10;;;10.43;;
25567;SDS011;13455;51.480;7.594;2024-03-22T13:52:30;16.60;;;10.45;;
25567;SDS011;13455;51.480;7.594;2024-03-22T13:54:56;16.33;;;10.73;;
25567;SDS011;13455;51.480;7.594;2024-03-22T13:57:22;17.35;;;10.77;;
25567;SDS011;13455;51.480;7.594;2024-03-22T13:59:50;15.47;;;10.90;;
25567;SDS011;13455;51.480;7.594;2024-03-22T14:02:16;18.93;;;11.80;;
25567;SDS011;13455;51.480;7.594;2024-03-22T14:04:41;17.65;;;11.60;;
25567;SDS011;13455;51.480;7.594;2024-03-22T14:07:07;17.07;;;11.73;;
25567;SDS011;13455;51.480;7.594;2024-03-22T14:09:34;17.38;;;11.48;;
25567;SDS011;13455;51.480;7.594;2024-03-22T14:12:01;18.60;;;11.63;;
25567;SDS011;13455;51.480;7.594;2024-03-22T14:14:27;18.40;;;12.27;;
25567;SDS011;13455;51.480;7.594;2024-03-22T14:16:53;19.80;;;12.57;;
25567;SDS011;13455;51.480;7.594;2024-03-22T14:19:19;19.88;;;12.55;;